Time;durP1;ratioP1;P1;durP2;ratioP2;P2;SDS_P1;SDS_P2;PMS_P1;PMS_P2;Temp;Humidity;BMP_temperature;BMP_pressure;BME280_temperature;BME280_humidity;BME280_pressure;Samples;Min_cycle;Max_cycle;Signal;HPM_P1;HPM_P2
2021/07/27 00:01:13;;;;;;;31.07;27.80;;;17.90;93.70;;;;;;5111123;28;20130;-65
2021/07/27 00:03:40;;;;;;;33.33;29.73;;;17.90;93.80;;;;;;5112475;28;20404;-66
2021/07/27 00:06:07;;;;;;;34.70;31.00;;;17.80;93.90;;;;;;5112097;28;20117;-65
2021/07/27 00:08:35;;;;;;;37.77;32.47;;;17.80;94.00;;;;;;5111720;28;20139;-65
2021/07/27 00:11:01;;;;;;;35.37;31.67;;;17.80;94.10;;;;;;5112136;28;20505;-65
2021/07/27 00:13:27;;;;;;;37.73;31.73;;;17.70;94.20;;;;;;5112346;28;20051;-65
2021/07/27 00:15:53;;;;;;;36.80;32.67;;;17.70;94.30;;;;;;5111475;28;20476;-65
2021/07/27 00:18:19;;;;;;;38.30;32.33;;;17.70;94.40;;;;;;5111887;28;20055;-65
2021/07/27 00:20:45;;;;;;;37.03;31.47;;;17.80;94.50;;;;;;5112130;28;20461;-65
2021/07/27 00:23:11;;;;;;;38.20;32.33;;;17.80;94.50;;;;;;5110765;28;20078;-65
2021/07/27 00:25:39;;;;;;;38.17;33.47;;;17.80;94.60;;;;;;5115933;28;20070;-65
2021/07/27 00:28:04;;;;;;;37.73;33.57;;;17.80;94.70;;;;;;5115584;28;20052;-65
2021/07/27 00:30:30;;;;;;;41.77;33.53;;;17.80;94.70;;;;;;5115850;28;20047;-66
2021/07/27 00:32:55;;;;;;;44.70;36.53;;;17.80;94.70;;;;;;5116250;28;20176;-65
2021/07/27 00:35:22;;;;;;;40.90;34.93;;;17.80;94.80;;;;;;5115179;28;20429;-65
2021/07/27 00:37:57;;;;;;;39.33;34.53;;;17.80;94.80;;;;;;5115870;28;20460;-65
2021/07/27 00:40:23;;;;;;;41.60;35.07;;;17.90;94.80;;;;;;5115849;28;20052;-65
2021/07/27 00:42:49;;;;;;;45.43;36.60;;;17.90;94.80;;;;;;5115179;28;20521;-65
2021/07/27 00:45:15;;;;;;;46.93;37.13;;;18.00;94.90;;;;;;5115825;28;20111;-66
2021/07/27 00:47:42;;;;;;;47.43;38.73;;;18.00;94.90;;;;;;5116090;28;20044;-64
2021/07/27 00:50:11;;;;;;;47.43;38.33;;;17.90;94.90;;;;;;5114887;28;20090;-65
2021/07/27 00:52:39;;;;;;;48.97;39.80;;;17.90;95.00;;;;;;5115967;27;20052;-65
2021/07/27 00:55:05;;;;;;;45.90;36.27;;;17.90;95.00;;;;;;5115470;28;20481;-65
2021/07/27 00:57:31;;;;;;;51.33;39.70;;;17.90;95.00;;;;;;5114719;27;20044;-65
2021/07/27 01:00:00;;;;;;;51.20;40.87;;;17.90;95.00;;;;;;5115817;28;20050;-65
2021/07/27 01:02:27;;;;;;;58.43;41.70;;;18.00;95.10;;;;;;5115798;28;20048;-65
2021/07/27 01:04:52;;;;;;;50.07;40.50;;;17.90;95.10;;;;;;5115067;28;20052;-65
2021/07/27 01:07:21;;;;;;;52.90;42.77;;;17.90;95.20;;;;;;5115244;28;20455;-65
2021/07/27 01:09:46;;;;;;;61.23;44.70;;;17.90;95.20;;;;;;5115736;28;20408;-65
2021/07/27 01:12:12;;;;;;;57.90;44.07;;;17.80;95.30;;;;;;5114191;28;20044;-65
2021/07/27 01:14:37;;;;;;;61.13;43.90;;;17.80;95.40;;;;;;5115538;28;20043;-65
2021/07/27 01:17:03;;;;;;;56.70;44.00;;;17.80;95.50;;;;;;5115128;28;20402;-65
2021/07/27 01:19:43;;;;;;;63.70;47.17;;;17.80;95.50;;;;;;5114715;28;20049;-65
2021/07/27 01:43:53;;;;;;;67.00;48.50;;;17.90;95.70;;;;;;5115086;28;20048;-65
2021/07/27 01:46:24;;;;;;;66.83;50.40;;;17.90;95.80;;;;;;5113859;28;20105;-65
2021/07/27 01:48:50;;;;;;;66.67;49.00;;;17.90;95.80;;;;;;5115039;28;20463;-65
2021/07/27 01:51:19;;;;;;;66.70;51.10;;;18.00;95.90;;;;;;5114554;28;20472;-65
2021/07/27 01:53:55;;;;;;;71.27;51.43;;;17.90;95.90;;;;;;5113768;28;20466;-65
2021/07/27 01:56:23;;;;;;;68.77;50.70;;;17.90;95.90;;;;;;5114422;28;20040;-66
2021/07/27 01:58:50;;;;;;;70.53;51.30;;;17.90;96.00;;;;;;5114620;28;20077;-66
2021/07/27 02:01:21;;;;;;;73.97;52.23;;;17.90;96.00;;;;;;5113532;28;20044;-66
2021/07/27 02:03:46;;;;;;;68.35;50.83;;;17.90;96.10;;;;;;5114722;28;20059;-65
2021/07/27 02:06:12;;;;;;;76.47;54.47;;;17.90;96.10;;;;;;5113960;28;20039;-65
2021/07/27 02:08:38;;;;;;;71.67;53.97;;;17.80;96.10;;;;;;5113862;28;20085;-65
2021/07/27 02:11:10;;;;;;;70.40;51.63;;;17.80;96.20;;;;;;5114271;28;20548;-65
2021/07/27 02:13:46;;;;;;;72.33;52.60;;;17.90;96.20;;;;;;5113695;28;20058;-65
2021/07/27 02:16:12;;;;;;;74.33;53.87;;;17.90;96.30;;;;;;5113989;28;20047;-65
2021/07/27 02:18:37;;;;;;;77.67;54.83;;;17.90;96.30;;;;;;5114004;28;20112;-65
2021/07/27 02:21:03;;;;;;;71.57;54.13;;;18.00;96.30;;;;;;5113363;28;20143;-65
2021/07/27 02:23:29;;;;;;;78.37;53.10;;;17.90;96.30;;;;;;5113990;28;20059;-65
2021/07/27 02:25:55;;;;;;;77.33;53.77;;;17.90;96.30;;;;;;5114178;28;20040;-65
2021/07/27 02:28:20;;;;;;;87.57;56.43;;;17.90;96.40;;;;;;5113271;28;20048;-66
2021/07/27 02:30:51;;;;;;;76.30;51.30;;;18.00;96.40;;;;;;5114064;28;20096;-67
2021/07/27 02:33:20;;;;;;;78.40;50.17;;;18.00;96.50;;;;;;5113995;28;20058;-67
2021/07/27 02:35:46;;;;;;;88.07;54.07;;;18.00;96.60;;;;;;5113584;28;20051;-66
2021/07/27 02:38:18;;;;;;;82.20;52.27;;;17.90;96.70;;;;;;5113159;28;20052;-67
2021/07/27 02:40:43;;;;;;;73.37;46.47;;;17.90;96.80;;;;;;5114074;28;20043;-66
2021/07/27 02:43:10;;;;;;;62.07;38.73;;;17.90;96.90;;;;;;5112570;28;20047;-67
2021/07/27 02:45:36;;;;;;;55.73;35.67;;;17.90;97.40;;;;;;5113845;28;20044;-67
2021/07/27 02:48:06;;;;;;;55.60;33.60;;;17.90;97.10;;;;;;5112367;27;20052;-66
2021/07/27 02:50:35;;;;;;;47.93;30.53;;;17.80;97.50;;;;;;5112879;28;20088;-66
2021/07/27 02:53:00;;;;;;;41.77;28.40;;;17.90;97.20;;;;;;5112781;28;20386;-66
2021/07/27 02:55:27;;;;;;;40.50;27.70;;;17.90;97.20;;;;;;5113711;28;20057;-66
2021/07/27 02:57:52;;;;;;;39.87;26.13;;;17.90;97.20;;;;;;5112610;28;20047;-66
2021/07/27 03:00:19;;;;;;;42.33;27.37;;;17.90;97.30;;;;;;5113116;28;20043;-67
2021/07/27 03:02:45;;;;;;;32.13;23.93;;;17.90;97.40;;;;;;5112593;28;20044;-66
2021/07/27 03:05:13;;;;;;;34.30;25.67;;;17.80;97.40;;;;;;5111896;28;20067;-66
2021/07/27 03:10:18;;;;;;;34.87;24.83;;;17.80;97.40;;;;;;5112142;28;20086;-67
2021/07/27 03:12:44;;;;;;;35.57;24.53;;;17.80;97.50;;;;;;5113089;28;20405;-66
2021/07/27 03:15:11;;;;;;;35.37;25.17;;;17.90;97.50;;;;;;5112876;28;20059;-66
2021/07/27 03:17:37;;;;;;;36.80;26.77;;;17.90;97.50;;;;;;5112276;28;20047;-66
2021/07/27 03:20:10;;;;;;;37.03;26.50;;;17.80;97.50;;;;;;5112900;28;20486;-66
2021/07/27 03:22:36;;;;;;;37.55;26.40;;;17.90;97.70;;;;;;5113411;28;20051;-66
2021/07/27 03:25:01;;;;;;;42.93;28.40;;;17.80;97.60;;;;;;5111891;28;20101;-66
2021/07/27 03:27:27;;;;;;;39.47;28.20;;;17.80;97.70;;;;;;5113108;28;20413;-66
2021/07/27 03:29:52;;;;;;;44.60;29.20;;;17.80;97.70;;;;;;5113174;28;20071;-66
2021/07/27 03:32:18;;;;;;;39.13;29.60;;;17.80;97.70;;;;;;5111991;28;20096;-66
2021/07/27 03:34:44;;;;;;;41.77;29.37;;;17.80;97.70;;;;;;5113049;28;20052;-66
2021/07/27 03:37:16;;;;;;;34.63;27.03;;;17.80;97.70;;;;;;5112632;28;20070;-66
2021/07/27 03:39:46;;;;;;;35.83;27.63;;;17.80;97.60;;;;;;5112191;28;20385;-66
2021/07/27 03:42:12;;;;;;;32.17;25.40;;;17.80;97.60;;;;;;5112669;28;20420;-66
2021/07/27 03:44:37;;;;;;;37.07;27.23;;;17.80;97.60;;;;;;5113095;28;20043;-66
2021/07/27 03:47:03;;;;;;;39.53;30.23;;;17.80;97.50;;;;;;5112055;28;20096;-66
2021/07/27 03:49:30;;;;;;;35.63;27.73;;;17.80;97.50;;;;;;5112844;28;20051;-66
2021/07/27 03:51:59;;;;;;;33.27;26.33;;;17.80;97.50;;;;;;5112758;28;20047;-67
2021/07/27 03:54:31;;;;;;;36.67;27.30;;;17.80;97.40;;;;;;5111938;28;20515;-66
2021/07/27 03:56:57;;;;;;;38.00;28.53;;;17.80;97.40;;;;;;5112491;28;20574;-66
2021/07/27 03:59:23;;;;;;;32.23;26.37;;;17.80;97.30;;;;;;5111585;28;20059;-66
2021/07/27 04:01:49;;;;;;;33.23;25.70;;;17.80;97.30;;;;;;5112535;28;20067;-66
2021/07/27 04:04:17;;;;;;;32.40;26.13;;;17.80;97.20;;;;;;5112279;28;20121;-65
2021/07/27 04:06:47;;;;;;;31.40;25.60;;;17.80;97.20;;;;;;5111781;28;20104;-66
2021/07/27 04:09:13;;;;;;;28.17;24.00;;;17.70;97.20;;;;;;5111954;28;20065;-66
2021/07/27 04:11:39;;;;;;;31.93;24.93;;;17.70;97.20;;;;;;5112424;28;20143;-66
2021/07/27 04:14:05;;;;;;;28.03;23.50;;;17.70;97.10;;;;;;5111676;28;20054;-65
2021/07/27 04:16:31;;;;;;;25.73;21.73;;;17.70;97.00;;;;;;5112672;28;20043;-65
2021/07/27 04:18:57;;;;;;;25.07;20.93;;;17.70;96.90;;;;;;5112270;28;20059;-66
2021/07/27 04:21:23;;;;;;;24.60;20.53;;;17.60;96.80;;;;;;5111457;28;20412;-66
2021/07/27 04:23:49;;;;;;;25.37;20.77;;;17.60;96.80;;;;;;5112148;28;20067;-66
2021/07/27 04:26:15;;;;;;;28.87;22.57;;;17.60;96.80;;;;;;5112075;28;20051;-66
2021/07/27 04:28:41;;;;;;;23.33;20.53;;;17.60;96.80;;;;;;5111641;28;20127;-65
2021/07/27 04:31:08;;;;;;;28.47;22.27;;;17.60;96.70;;;;;;5112146;28;20040;-66
2021/07/27 04:33:34;;;;;;;25.37;21.83;;;17.60;96.70;;;;;;5112394;28;20496;-66
2021/07/27 04:35:59;;;;;;;26.77;21.90;;;17.50;96.70;;;;;;5111307;28;20052;-65
2021/07/27 04:38:25;;;;;;;26.17;21.97;;;17.50;96.70;;;;;;5112185;28;20408;-66
2021/07/27 04:40:54;;;;;;;26.87;22.13;;;17.50;96.60;;;;;;5112440;28;20177;-65
2021/07/27 04:43:20;;;;;;;28.57;22.97;;;17.50;96.60;;;;;;5111084;28;20519;-66
2021/07/27 04:45:46;;;;;;;28.77;23.50;;;17.50;96.60;;;;;;5112180;28;20044;-65
2021/07/27 04:48:11;;;;;;;31.53;25.70;;;17.40;96.70;;;;;;5111902;28;20460;-66
2021/07/27 04:50:38;;;;;;;33.50;25.10;;;17.40;96.80;;;;;;5111398;28;20044;-65
2021/07/27 04:53:05;;;;;;;34.23;25.87;;;17.40;96.90;;;;;;5111818;28;20070;-66
2021/07/27 04:55:31;;;;;;;37.07;27.23;;;17.30;97.00;;;;;;5111474;28;20082;-65
2021/07/27 04:57:57;;;;;;;31.93;26.80;;;17.30;97.10;;;;;;5112320;28;20060;-65
2021/07/27 05:00:23;;;;;;;36.77;28.83;;;17.30;97.20;;;;;;5111859;28;20050;-66
2021/07/27 05:02:49;;;;;;;35.60;27.87;;;17.30;97.30;;;;;;5111355;28;20075;-65
2021/07/27 05:05:15;;;;;;;36.93;28.20;;;17.30;97.30;;;;;;5111815;28;20412;-65
2021/07/27 05:07:44;;;;;;;36.77;29.40;;;17.30;97.30;;;;;;5112161;28;20071;-65
2021/07/27 05:10:10;;;;;;;38.37;29.43;;;17.40;97.40;;;;;;5111902;28;20411;-65
2021/07/27 05:12:39;;;;;;;34.07;27.90;;;17.40;97.40;;;;;;5115756;28;20134;-65
2021/07/27 05:15:06;;;;;;;36.57;28.43;;;17.40;97.40;;;;;;5115208;28;20103;-66
2021/07/27 05:17:32;;;;;;;35.27;27.70;;;17.40;97.50;;;;;;5114855;28;20071;-66
2021/07/27 05:19:58;;;;;;;37.47;28.67;;;17.50;97.50;;;;;;5115781;28;20071;-66
2021/07/27 05:22:26;;;;;;;37.80;28.50;;;17.50;97.50;;;;;;5115708;28;20052;-66
2021/07/27 05:24:56;;;;;;;31.93;26.80;;;17.50;97.50;;;;;;5114563;28;20051;-66
2021/07/27 05:27:22;;;;;;;37.50;27.70;;;17.60;97.50;;;;;;5115128;28;20492;-66
2021/07/27 05:29:49;;;;;;;31.73;26.23;;;17.60;97.50;;;;;;5115373;28;20492;-66
2021/07/27 05:32:15;;;;;;;36.77;27.70;;;17.60;97.40;;;;;;5114169;28;20137;-66
2021/07/27 05:34:40;;;;;;;32.43;26.77;;;17.70;97.30;;;;;;5115210;28;20055;-65
2021/07/27 05:37:08;;;;;;;33.03;25.23;;;17.70;97.30;;;;;;5114506;28;20507;-66
2021/07/27 05:39:33;;;;;;;32.13;25.73;;;17.70;97.30;;;;;;5114543;28;20043;-66
2021/07/27 05:41:59;;;;;;;30.70;25.90;;;17.70;97.20;;;;;;5115287;28;20043;-65
2021/07/27 05:44:25;;;;;;;37.43;27.67;;;17.70;97.10;;;;;;5115162;28;20048;-66
2021/07/27 05:46:57;;;;;;;34.87;26.23;;;17.80;97.20;;;;;;5114498;28;20047;-65
2021/07/27 05:49:27;;;;;;;30.93;25.63;;;17.80;97.10;;;;;;5114672;28;20487;-66
2021/07/27 05:51:53;;;;;;;33.50;26.03;;;17.80;97.00;;;;;;5114323;28;20044;-65
2021/07/27 05:54:20;;;;;;;30.90;25.03;;;17.80;96.80;;;;;;5114721;28;20052;-66
2021/07/27 05:56:49;;;;;;;33.20;25.83;;;17.90;96.80;;;;;;5114795;28;20047;-66
2021/07/27 05:59:16;;;;;;;30.57;25.27;;;17.90;96.80;;;;;;5113848;28;20062;-66
2021/07/27 06:01:43;;;;;;;32.10;25.77;;;17.90;96.70;;;;;;5114851;28;20046;-66
2021/07/27 06:04:10;;;;;;;35.00;27.10;;;17.90;96.70;;;;;;5114267;28;20480;-66
2021/07/27 06:06:36;;;;;;;32.43;26.73;;;17.90;96.80;;;;;;5114151;28;20050;-66
2021/07/27 06:09:06;;;;;;;34.30;25.80;;;17.90;96.70;;;;;;5114306;28;20051;-66
2021/07/27 06:11:32;;;;;;;33.27;25.80;;;17.90;96.70;;;;;;5114453;28;20389;-66
2021/07/27 06:14:00;;;;;;;29.47;26.30;;;17.90;96.70;;;;;;5113865;28;20054;-65
2021/07/27 06:16:26;;;;;;;34.27;27.60;;;18.00;96.70;;;;;;5114671;28;20048;-65
2021/07/27 06:18:51;;;;;;;33.93;26.27;;;18.00;96.70;;;;;;5114548;28;20104;-66
2021/07/27 06:21:17;;;;;;;30.13;25.87;;;18.00;96.70;;;;;;5112360;28;20052;-66
2021/07/27 06:23:43;;;;;;;35.40;28.17;;;18.00;96.60;;;;;;5113635;28;20059;-65
2021/07/27 06:26:08;;;;;;;35.30;28.77;;;18.00;96.60;;;;;;5113667;28;20044;-66
2021/07/27 06:28:34;;;;;;;35.17;29.70;;;18.00;96.60;;;;;;5113317;28;20050;-66
2021/07/27 06:31:04;;;;;;;36.73;28.37;;;18.00;96.70;;;;;;5113699;28;20087;-66
2021/07/27 06:33:30;;;;;;;37.27;30.37;;;18.00;96.70;;;;;;5113926;27;20204;-65
2021/07/27 06:35:57;;;;;;;38.97;31.43;;;18.10;96.70;;;;;;5113015;28;20497;-66
2021/07/27 06:38:23;;;;;;;35.93;29.70;;;18.20;96.70;;;;;;5113600;28;20531;-65
2021/07/27 06:40:49;;;;;;;43.60;32.17;;;18.30;96.60;;;;;;5113862;28;20071;-65
2021/07/27 06:43:15;;;;;;;45.33;34.03;;;18.30;96.40;;;;;;5112801;28;20078;-65
2021/07/27 06:45:41;;;;;;;46.67;34.17;;;18.30;96.40;;;;;;5113657;28;20098;-65
2021/07/27 06:48:08;;;;;;;44.77;34.53;;;18.40;96.40;;;;;;5113032;28;20047;-65
2021/07/27 06:50:33;;;;;;;50.03;35.80;;;18.40;96.20;;;;;;5113820;28;20050;-65
2021/07/27 06:53:02;;;;;;;51.70;36.93;;;18.40;96.00;;;;;;5106316;28;20133;-65
2021/07/27 06:55:28;;;;;;;49.40;37.90;;;18.40;96.00;;;;;;5108904;28;20044;-64
2021/07/27 06:57:54;;;;;;;47.77;36.20;;;18.40;96.00;;;;;;5109371;28;20047;-65
2021/07/27 07:00:20;;;;;;;53.53;40.00;;;18.40;96.00;;;;;;5109808;28;20051;-64
2021/07/27 07:02:46;;;;;;;50.80;38.37;;;18.40;95.90;;;;;;5108630;28;20112;-65
2021/07/27 07:05:12;;;;;;;54.60;38.60;;;18.50;95.90;;;;;;5109360;28;20450;-64
2021/07/27 07:07:39;;;;;;;54.57;38.53;;;18.50;95.80;;;;;;5109385;28;20044;-65
2021/07/27 07:10:05;;;;;;;56.37;39.90;;;18.50;95.70;;;;;;5108640;28;20047;-64
2021/07/27 07:12:31;;;;;;;48.87;37.93;;;18.60;95.40;;;;;;5108619;28;20557;-64
2021/07/27 07:14:57;;;;;;;56.77;41.67;;;18.60;95.40;;;;;;5108996;28;20043;-64
2021/07/27 07:17:23;;;;;;;53.67;39.30;;;18.70;95.40;;;;;;5108424;28;20065;-64
2021/07/27 07:19:51;;;;;;;60.67;42.37;;;18.70;95.20;;;;;;5109340;28;20142;-64
2021/07/27 07:22:18;;;;;;;55.87;40.37;;;18.70;95.00;;;;;;5108983;28;20070;-64
2021/07/27 07:24:45;;;;;;;58.13;42.17;;;18.70;94.90;;;;;;5108113;28;20142;-64
2021/07/27 07:27:11;;;;;;;58.10;43.10;;;18.70;95.00;;;;;;5108736;28;20406;-67
2021/07/27 07:29:37;;;;;;;58.27;42.53;;;18.80;94.80;;;;;;5108168;28;20201;-65
2021/07/27 07:32:03;;;;;;;60.10;42.50;;;18.80;94.90;;;;;;5108642;28;20483;-66
2021/07/27 07:34:28;;;;;;;58.20;43.77;;;18.90;95.00;;;;;;5108523;28;20170;-66
2021/07/27 07:36:54;;;;;;;60.63;43.10;;;19.00;94.80;;;;;;5109857;28;20040;-67
2021/07/27 07:39:20;;;;;;;58.93;42.83;;;18.90;94.50;;;;;;5107867;28;20505;-66
2021/07/27 07:41:45;;;;;;;64.27;44.40;;;19.00;94.60;;;;;;5108885;28;20044;-66
2021/07/27 07:44:11;;;;;;;59.80;42.00;;;19.00;94.50;;;;;;5107827;28;20051;-65
2021/07/27 07:46:37;;;;;;;60.73;44.30;;;19.00;94.30;;;;;;5108456;28;20082;-66
2021/07/27 07:49:03;;;;;;;58.67;42.23;;;19.10;94.30;;;;;;5108554;28;20096;-69
2021/07/27 07:51:32;;;;;;;60.70;43.87;;;19.10;94.20;;;;;;5106994;28;20123;-66
2021/07/27 07:53:57;;;;;;;67.53;45.53;;;19.20;94.00;;;;;;5109289;28;20097;-66
2021/07/27 07:56:23;;;;;;;61.60;45.07;;;19.20;93.90;;;;;;5108218;28;20043;-66
2021/07/27 07:58:49;;;;;;;59.93;43.07;;;19.30;93.80;;;;;;5108106;28;20546;-66
2021/07/27 08:01:15;;;;;;;57.83;44.53;;;19.40;93.80;;;;;;5108545;28;20613;-66
2021/07/27 08:03:40;;;;;;;59.03;44.13;;;19.50;93.70;;;;;;5108678;28;20108;-66
2021/07/27 08:06:07;;;;;;;58.70;42.37;;;19.50;93.40;;;;;;5107386;28;20039;-66
2021/07/27 08:08:38;;;;;;;53.53;42.37;;;19.60;93.10;;;;;;5108621;28;20104;-66
2021/07/27 08:11:06;;;;;;;50.10;38.10;;;19.70;93.10;;;;;;5108325;28;20419;-67
2021/07/27 08:13:31;;;;;;;51.87;40.57;;;19.80;92.40;;;;;;5107589;28;20078;-66
2021/07/27 08:15:57;;;;;;;53.57;40.67;;;19.90;92.20;;;;;;5108311;28;20493;-66
2021/07/27 08:18:22;;;;;;;50.63;39.00;;;20.00;92.20;;;;;;5108197;28;20058;-67
2021/07/27 08:20:48;;;;;;;50.63;40.40;;;20.10;92.00;;;;;;5108269;28;20047;-66
2021/07/27 08:23:14;;;;;;;51.07;39.87;;;20.10;91.40;;;;;;5108348;28;20063;-66
2021/07/27 08:25:39;;;;;;;50.77;40.20;;;20.20;91.50;;;;;;5107983;28;20243;-66
2021/07/27 08:28:05;;;;;;;48.40;38.27;;;20.20;92.10;;;;;;5107561;28;20367;-66
2021/07/27 08:30:34;;;;;;;45.33;37.60;;;20.30;91.70;;;;;;5108127;28;20070;-66
2021/07/27 08:32:59;;;;;;;46.77;36.03;;;20.40;91.50;;;;;;5108021;28;20051;-66
2021/07/27 08:35:25;;;;;;;45.37;38.70;;;20.50;91.30;;;;;;5107187;28;20048;-66
2021/07/27 08:37:51;;;;;;;46.17;38.17;;;20.60;91.00;;;;;;5108494;28;20058;-66
2021/07/27 08:40:18;;;;;;;46.37;37.90;;;20.60;90.30;;;;;;5107610;28;20055;-67
2021/07/27 08:42:46;;;;;;;44.25;36.67;;;20.70;89.80;;;;;;5107464;28;20492;-66
2021/07/27 08:45:13;;;;;;;44.47;36.25;;;20.70;89.60;;;;;;5108957;28;20080;-67
2021/07/27 08:47:47;;;;;;;39.63;34.90;;;20.70;89.10;;;;;;5112075;28;20043;-67
2021/07/27 08:50:13;;;;;;;39.55;35.28;;;20.90;89.00;;;;;;5111918;28;20043;-67
2021/07/27 08:52:38;;;;;;;43.97;35.92;;;21.00;89.00;;;;;;5112041;28;20119;-66
2021/07/27 08:55:06;;;;;;;37.90;32.90;;;21.10;88.30;;;;;;5111282;28;21487;-67
2021/07/27 08:57:31;;;;;;;40.15;35.00;;;21.10;88.00;;;;;;5112131;28;20416;-66
2021/07/27 08:59:57;;;;;;;39.00;34.03;;;21.10;87.00;;;;;;5112025;28;20043;-66
2021/07/27 09:02:31;;;;;;;40.50;35.10;;;21.10;86.60;;;;;;5110566;28;20849;-67
2021/07/27 09:05:10;;;;;;;40.17;35.80;;;21.10;85.70;;;;;;5112570;28;20089;-67
2021/07/27 09:07:37;;;;;;;42.33;33.75;;;21.00;85.50;;;;;;5112253;28;20601;-67
2021/07/27 09:10:22;;;;;;;38.45;34.25;;;20.90;86.50;;;;;;5110733;28;20104;-66
2021/07/27 09:12:56;;;;;;;40.95;33.38;;;20.90;86.30;;;;;;5111838;27;20100;-66
2021/07/27 09:15:23;;;;;;;40.28;35.33;;;21.00;86.60;;;;;;5111754;28;20127;-67
2021/07/27 09:17:51;;;;;;;40.08;35.40;;;21.00;86.40;;;;;;5111155;28;20055;-66
2021/07/27 09:20:36;;;;;;;42.38;36.58;;;21.10;85.80;;;;;;5111180;28;20047;-66
2021/07/27 09:23:06;;;;;;;39.42;33.55;;;21.10;84.90;;;;;;5110337;28;20048;-67
2021/07/27 09:25:33;;;;;;;41.57;35.93;;;21.00;84.90;;;;;;5111540;28;20150;-67
2021/07/27 09:28:09;;;;;;;42.20;37.10;;;21.00;85.20;;;;;;5112077;28;20044;-67
2021/07/27 09:30:36;;;;;;;40.10;35.42;;;21.00;85.00;;;;;;5110478;28;20044;-67
2021/07/27 09:33:03;;;;;;;42.70;36.63;;;21.00;85.50;;;;;;5110790;28;20408;-67
2021/07/27 09:35:29;;;;;;;43.55;37.55;;;21.10;84.60;;;;;;5111369;28;20411;-67
2021/07/27 09:38:10;;;;;;;42.38;36.60;;;21.10;84.40;;;;;;5110832;28;20092;-66
2021/07/27 09:40:53;;;;;;;42.03;35.25;;;21.30;83.00;;;;;;5110915;28;20445;-66
2021/07/27 09:43:23;;;;;;;43.10;35.88;;;21.40;83.50;;;;;;5110974;28;20040;-67
2021/07/27 09:45:55;;;;;;;42.45;35.10;;;21.50;82.90;;;;;;5110289;28;20055;-67
2021/07/27 09:48:22;;;;;;;39.10;34.60;;;21.70;82.70;;;;;;5111060;28;20067;-67
2021/07/27 09:50:50;;;;;;;39.60;34.13;;;21.80;81.80;;;;;;5109797;28;20048;-67
2021/07/27 09:53:16;;;;;;;39.10;33.90;;;21.90;81.00;;;;;;5110123;28;20056;-67
2021/07/27 09:55:41;;;;;;;38.78;34.13;;;22.10;80.10;;;;;;5110079;28;20036;-67
2021/07/27 09:58:07;;;;;;;36.90;32.80;;;22.20;79.90;;;;;;5110243;28;20320;-67
2021/07/27 10:00:38;;;;;;;36.80;32.17;;;22.30;79.60;;;;;;5110781;28;20139;-67
2021/07/27 10:03:10;;;;;;;35.13;30.77;;;22.20;78.70;;;;;;5110160;27;20528;-67
2021/07/27 10:05:36;;;;;;;;;;;22.20;78.30;;;;;;5110981;28;20064;-67
2021/07/27 10:08:02;;;;;;;31.60;28.20;;;22.00;76.70;;;;;;5110166;28;20063;-67
2021/07/27 10:10:39;;;;;;;33.97;30.10;;;21.90;78.20;;;;;;5110884;28;20142;-67
2021/07/27 10:13:06;;;;;;;34.83;29.60;;;21.80;77.50;;;;;;5109025;28;20463;-67
2021/07/27 10:15:38;;;;;;;37.97;30.83;;;21.80;77.90;;;;;;5110826;28;20055;-67
2021/07/27 10:18:04;;;;;;;33.45;28.83;;;21.90;77.40;;;;;;5109712;28;20353;-67
2021/07/27 10:20:30;;;;;;;34.67;30.90;;;21.90;77.50;;;;;;5109366;28;20128;-67
2021/07/27 10:22:55;;;;;;;32.42;29.02;;;21.90;77.40;;;;;;5109567;28;20492;-67
2021/07/27 10:25:21;;;;;;;32.13;28.83;;;22.00;76.60;;;;;;5110282;28;20098;-67
2021/07/27 10:27:49;;;;;;;30.92;27.65;;;22.00;75.30;;;;;;5108843;28;20444;-67
2021/07/27 10:30:15;;;;;;;29.42;26.42;;;22.00;74.90;;;;;;5109593;28;20067;-67
2021/07/27 10:32:54;;;;;;;29.15;24.73;;;22.10;75.00;;;;;;5109656;28;20073;-66
2021/07/27 10:35:27;;;;;;;32.63;29.15;;;22.20;75.50;;;;;;5109616;28;20615;-67
2021/07/27 10:37:54;;;;;;;36.33;32.47;;;22.40;75.50;;;;;;5109833;28;20043;-67
2021/07/27 10:40:30;;;;;;;31.48;28.13;;;22.40;74.60;;;;;;5109032;28;20043;-67
2021/07/27 10:42:56;;;;;;;30.15;26.95;;;22.30;73.40;;;;;;5109295;28;20081;-67
2021/07/27 10:45:22;;;;;;;27.50;24.65;;;22.30;75.50;;;;;;5109975;28;20047;-67
2021/07/27 10:47:51;;;;;;;28.58;25.20;;;22.40;75.60;;;;;;5108513;28;20047;-67
2021/07/27 10:50:23;;;;;;;29.55;24.38;;;22.40;74.80;;;;;;5109230;28;20055;-67
2021/07/27 10:52:49;;;;;;;23.63;21.25;;;22.40;74.10;;;;;;5108842;28;20424;-66
2021/07/27 10:55:16;;;;;;;22.55;20.23;;;22.50;73.50;;;;;;5108765;28;20036;-66
2021/07/27 10:57:49;;;;;;;22.05;19.75;;;22.50;73.20;;;;;;5108533;28;20040;-67
2021/07/27 11:00:15;;;;;;;21.23;18.17;;;22.50;72.80;;;;;;5106625;28;20047;-66
2021/07/27 11:02:40;;;;;;;21.27;19.05;;;22.40;73.50;;;;;;5108479;28;20054;-66
2021/07/27 11:05:08;;;;;;;23.85;20.58;;;22.40;73.90;;;;;;5108478;28;20152;-67
2021/07/27 11:07:34;;;;;;;20.77;18.73;;;22.50;73.60;;;;;;5105575;28;20430;-66
2021/07/27 11:10:01;;;;;;;21.13;18.85;;;22.60;74.60;;;;;;5107517;28;20082;-67
2021/07/27 11:12:29;;;;;;;21.50;19.25;;;22.80;74.00;;;;;;5109156;28;20094;-66
2021/07/27 11:15:27;;;;;;;19.98;17.90;;;23.00;72.40;;;;;;5106431;28;20139;-67
2021/07/27 11:17:58;;;;;;;19.38;17.00;;;23.10;69.80;;;;;;5105410;28;20055;-67
2021/07/27 11:20:25;;;;;;;21.35;16.80;;;23.10;70.60;;;;;;5107998;28;20036;-67
2021/07/27 11:22:56;;;;;;;20.38;18.27;;;23.20;71.40;;;;;;5109527;28;20090;-67
2021/07/27 11:25:24;;;;;;;18.25;16.33;;;23.30;71.40;;;;;;5111794;28;20394;-67
2021/07/27 11:27:50;;;;;;;21.67;17.20;;;23.40;71.70;;;;;;5111607;28;20499;-67
2021/07/27 11:30:18;;;;;;;18.70;16.67;;;23.30;71.20;;;;;;5111214;28;20135;-67
2021/07/27 11:32:45;;;;;;;19.15;17.42;;;23.20;71.00;;;;;;5111654;28;20039;-67
2021/07/27 11:35:21;;;;;;;18.95;16.88;;;23.20;71.50;;;;;;5111093;28;20044;-67
2021/07/27 11:38:00;;;;;;;18.63;16.80;;;23.20;70.30;;;;;;5111562;28;20051;-67
2021/07/27 11:40:26;;;;;;;20.02;17.92;;;23.40;70.50;;;;;;5112108;28;20065;-67
2021/07/27 11:42:59;;;;;;;20.60;17.45;;;23.50;70.00;;;;;;5111545;28;20469;-67
2021/07/27 11:45:25;;;;;;;20.35;18.25;;;23.70;70.00;;;;;;5109780;28;20043;-67
2021/07/27 11:47:51;;;;;;;21.45;19.35;;;23.80;69.40;;;;;;5111421;28;20052;-67
2021/07/27 11:50:27;;;;;;;19.13;16.95;;;23.80;68.40;;;;;;5111175;28;20053;-67
2021/07/27 11:53:00;;;;;;;21.42;18.70;;;23.90;68.20;;;;;;5111421;28;20097;-66
2021/07/27 11:55:37;;;;;;;20.25;17.95;;;23.80;67.90;;;;;;5111282;28;20047;-67
2021/07/27 11:58:04;;;;;;;17.98;16.15;;;23.60;67.60;;;;;;5110077;28;20047;-67
2021/07/27 12:00:31;;;;;;;19.48;17.55;;;23.50;68.80;;;;;;5111641;28;20051;-67
2021/07/27 12:02:58;;;;;;;18.90;17.00;;;23.60;68.70;;;;;;5112393;28;20043;-67
2021/07/27 12:05:24;;;;;;;20.10;18.10;;;23.70;68.60;;;;;;5111126;28;20117;-68
2021/07/27 12:07:50;;;;;;;20.90;18.77;;;23.70;68.50;;;;;;5112026;28;20492;-68
2021/07/27 12:10:16;;;;;;;21.73;19.15;;;23.70;68.10;;;;;;5111868;28;20046;-67
2021/07/27 12:12:42;;;;;;;21.20;19.00;;;23.70;67.80;;;;;;5111403;28;20051;-67
2021/07/27 12:15:12;;;;;;;21.75;19.40;;;23.60;67.90;;;;;;5111930;28;20100;-66
2021/07/27 12:17:38;;;;;;;20.83;18.73;;;23.60;68.30;;;;;;5111284;28;20055;-67
2021/07/27 12:20:05;;;;;;;21.40;19.13;;;23.60;68.30;;;;;;5113668;28;20074;-67
2021/07/27 12:22:31;;;;;;;20.77;18.63;;;23.80;67.90;;;;;;5116221;28;20050;-67
2021/07/27 12:24:56;;;;;;;20.02;18.13;;;24.00;67.20;;;;;;5115922;28;20134;-66
2021/07/27 12:27:22;;;;;;;19.50;17.60;;;24.00;67.20;;;;;;5114979;28;20044;-67
2021/07/27 12:29:47;;;;;;;21.38;19.35;;;24.10;67.20;;;;;;5114963;28;20568;-67
2021/07/27 12:32:13;;;;;;;21.00;18.02;;;24.00;66.40;;;;;;5115030;28;20048;-67
2021/07/27 12:34:38;;;;;;;20.35;17.73;;;23.90;66.90;;;;;;5114415;28;20040;-67
2021/07/27 12:37:04;;;;;;;20.17;18.17;;;23.90;67.60;;;;;;5114650;28;20051;-66
2021/07/27 12:39:30;;;;;;;21.83;19.00;;;24.00;67.80;;;;;;5114514;28;20047;-67
2021/07/27 12:41:55;;;;;;;20.33;18.25;;;24.20;67.30;;;;;;5115152;28;20392;-67
2021/07/27 12:44:21;;;;;;;22.67;20.35;;;24.20;67.50;;;;;;5115514;28;20476;-67
2021/07/27 12:46:47;;;;;;;20.90;18.83;;;24.10;67.20;;;;;;5114847;28;20476;-67
2021/07/27 12:49:14;;;;;;;20.33;18.33;;;23.90;67.50;;;;;;5115166;28;20040;-67
2021/07/27 12:51:40;;;;;;;20.50;18.33;;;23.70;68.00;;;;;;5115418;28;20051;-67
2021/07/27 12:54:07;;;;;;;20.65;18.33;;;23.50;68.50;;;;;;5114502;28;20063;-67